sensor_id;sensor_type;location;lat;lon;timestamp;pressure;altitude;pressure_sealevel;temperature;humidity
25947;BME280;13745;51.470;9.894;2023-06-19T00:00:36;98918.03;;;21.37;66.35
25947;BME280;13745;51.470;9.894;2023-06-19T00:03:23;98918.34;;;21.33;66.46
25947;BME280;13745;51.470;9.894;2023-06-19T00:06:08;98917.69;;;21.29;66.76
25947;BME280;13745;51.470;9.894;2023-06-19T00:08:56;98914.31;;;21.27;66.03
25947;BME280;13745;51.470;9.894;2023-06-19T00:11:41;98909.19;;;21.24;65.58
25947;BME280;13745;51.470;9.894;2023-06-19T00:14:27;98911.94;;;21.22;65.41
25947;BME280;13745;51.470;9.894;2023-06-19T00:17:12;98898.00;;;21.20;65.27
25947;BME280;13745;51.470;9.894;2023-06-19T00:20:00;98897.25;;;21.18;66.07
25947;BME280;13745;51.470;9.894;2023-06-19T00:22:45;98893.88;;;21.16;65.61
25947;BME280;13745;51.470;9.894;2023-06-19T00:25:35;98893.25;;;21.13;65.65
25947;BME280;13745;51.470;9.894;2023-06-19T00:28:20;98888.06;;;21.11;66.15
25947;BME280;13745;51.470;9.894;2023-06-19T00:31:07;98882.97;;;21.08;66.71
25947;BME280;13745;51.470;9.894;2023-06-19T00:33:52;98881.28;;;21.07;66.74
25947;BME280;13745;51.470;9.894;2023-06-19T00:36:37;98874.44;;;21.04;67.07
25947;BME280;13745;51.470;9.894;2023-06-19T00:39:25;98870.94;;;21.04;67.24
25947;BME280;13745;51.470;9.894;2023-06-19T00:42:11;98873.75;;;21.01;67.11
25947;BME280;13745;51.470;9.894;2023-06-19T00:44:56;98874.81;;;20.98;67.35
25947;BME280;13745;51.470;9.894;2023-06-19T00:47:42;98865.31;;;20.96;67.12
25947;BME280;13745;51.470;9.894;2023-06-19T00:50:28;98870.13;;;20.89;67.02
25947;BME280;13745;51.470;9.894;2023-06-19T00:53:14;98858.00;;;20.87;66.69
25947;BME280;13745;51.470;9.894;2023-06-19T00:56:00;98866.75;;;20.87;66.69
25947;BME280;13745;51.470;9.894;2023-06-19T00:58:45;98862.50;;;20.85;66.77
25947;BME280;13745;51.470;9.894;2023-06-19T01:01:32;98868.72;;;20.84;66.76
25947;BME280;13745;51.470;9.894;2023-06-19T01:04:19;98860.19;;;20.80;67.12
25947;BME280;13745;51.470;9.894;2023-06-19T01:07:07;98871.84;;;20.76;67.42
25947;BME280;13745;51.470;9.894;2023-06-19T01:10:01;98877.31;;;20.73;67.17
25947;BME280;13745;51.470;9.894;2023-06-19T01:12:54;98888.81;;;20.72;67.46
25947;BME280;13745;51.470;9.894;2023-06-19T01:15:41;98891.53;;;20.70;67.38
25947;BME280;13745;51.470;9.894;2023-06-19T01:18:27;98882.97;;;20.67;67.49
25947;BME280;13745;51.470;9.894;2023-06-19T01:21:16;98879.50;;;20.66;67.04
25947;BME280;13745;51.470;9.894;2023-06-19T01:24:02;98876.84;;;20.66;67.39
25947;BME280;13745;51.470;9.894;2023-06-19T01:26:49;98876.13;;;20.64;67.09
25947;BME280;13745;51.470;9.894;2023-06-19T01:29:34;98869.78;;;20.67;67.12
25947;BME280;13745;51.470;9.894;2023-06-19T01:32:23;98867.94;;;20.69;67.05
25947;BME280;13745;51.470;9.894;2023-06-19T01:35:13;98867.84;;;20.70;67.27
25947;BME280;13745;51.470;9.894;2023-06-19T01:38:00;98873.09;;;20.70;67.78
25947;BME280;13745;51.470;9.894;2023-06-19T01:40:48;98857.41;;;20.69;67.88
25947;BME280;13745;51.470;9.894;2023-06-19T01:43:35;98865.38;;;20.67;68.28
25947;BME280;13745;51.470;9.894;2023-06-19T01:46:20;98868.84;;;20.68;68.29
25947;BME280;13745;51.470;9.894;2023-06-19T01:49:07;98874.13;;;20.68;68.63
25947;BME280;13745;51.470;9.894;2023-06-19T01:51:53;98875.06;;;20.67;69.21
25947;BME280;13745;51.470;9.894;2023-06-19T01:54:41;98868.94;;;20.66;69.42
25947;BME280;13745;51.470;9.894;2023-06-19T01:57:27;98881.28;;;20.66;69.59
25947;BME280;13745;51.470;9.894;2023-06-19T02:00:13;98877.06;;;20.63;69.57
25947;BME280;13745;51.470;9.894;2023-06-19T02:02:57;98867.38;;;20.64;69.51
25947;BME280;13745;51.470;9.894;2023-06-19T02:05:43;98865.69;;;20.63;69.16
25947;BME280;13745;51.470;9.894;2023-06-19T02:08:28;98868.47;;;20.60;69.07
25947;BME280;13745;51.470;9.894;2023-06-19T02:11:13;98871.97;;;20.60;69.33
25947;BME280;13745;51.470;9.894;2023-06-19T02:13:59;98859.84;;;20.58;68.51
25947;BME280;13745;51.470;9.894;2023-06-19T02:16:44;98858.91;;;20.59;68.36
25947;BME280;13745;51.470;9.894;2023-06-19T02:19:29;98854.47;;;20.59;68.32
25947;BME280;13745;51.470;9.894;2023-06-19T02:22:14;98850.03;;;20.60;69.03
25947;BME280;13745;51.470;9.894;2023-06-19T02:24:59;98839.63;;;20.58;68.79
25947;BME280;13745;51.470;9.894;2023-06-19T02:27:44;98851.84;;;20.59;68.68
25947;BME280;13745;51.470;9.894;2023-06-19T02:30:31;98836.97;;;20.58;69.21
25947;BME280;13745;51.470;9.894;2023-06-19T02:33:16;98843.19;;;20.57;69.35
25947;BME280;13745;51.470;9.894;2023-06-19T02:36:01;98838.78;;;20.58;69.34
25947;BME280;13745;51.470;9.894;2023-06-19T02:38:47;98828.34;;;20.56;69.45
25947;BME280;13745;51.470;9.894;2023-06-19T02:41:32;98818.84;;;20.54;69.96
25947;BME280;13745;51.470;9.894;2023-06-19T02:44:17;98821.50;;;20.54;69.86
25947;BME280;13745;51.470;9.894;2023-06-19T02:47:04;98808.50;;;20.51;69.80
25947;BME280;13745;51.470;9.894;2023-06-19T02:49:49;98823.56;;;20.48;69.73
25947;BME280;13745;51.470;9.894;2023-06-19T02:52:34;98828.06;;;20.46;70.05
25947;BME280;13745;51.470;9.894;2023-06-19T02:55:19;98837.88;;;20.44;69.81
25947;BME280;13745;51.470;9.894;2023-06-19T02:58:04;98830.81;;;20.45;70.16
25947;BME280;13745;51.470;9.894;2023-06-19T03:00:49;98829.13;;;20.44;70.27
25947;BME280;13745;51.470;9.894;2023-06-19T03:03:36;98827.38;;;20.43;70.34
25947;BME280;13745;51.470;9.894;2023-06-19T03:06:22;98839.69;;;20.42;70.47
25947;BME280;13745;51.470;9.894;2023-06-19T03:09:07;98839.06;;;20.39;69.88
25947;BME280;13745;51.470;9.894;2023-06-19T03:11:56;98839.06;;;20.39;70.00
25947;BME280;13745;51.470;9.894;2023-06-19T03:14:41;98846.09;;;20.38;69.61
25947;BME280;13745;51.470;9.894;2023-06-19T03:17:27;98850.53;;;20.38;69.63
25947;BME280;13745;51.470;9.894;2023-06-19T03:20:13;98844.59;;;20.34;69.66
25947;BME280;13745;51.470;9.894;2023-06-19T03:23:06;98843.84;;;20.32;69.79
25947;BME280;13745;51.470;9.894;2023-06-19T03:25:51;98835.00;;;20.33;69.56
25947;BME280;13745;51.470;9.894;2023-06-19T03:28:37;98839.44;;;20.33;69.93
25947;BME280;13745;51.470;9.894;2023-06-19T03:31:25;98835.09;;;20.32;69.57
25947;BME280;13745;51.470;9.894;2023-06-19T03:34:11;98838.47;;;20.34;69.75
25947;BME280;13745;51.470;9.894;2023-06-19T03:36:58;98838.47;;;20.34;70.09
25947;BME280;13745;51.470;9.894;2023-06-19T03:39:43;98836.69;;;20.34;70.37
25947;BME280;13745;51.470;9.894;2023-06-19T03:42:30;98837.53;;;20.35;70.35
25947;BME280;13745;51.470;9.894;2023-06-19T03:45:16;98840.16;;;20.35;70.81
25947;BME280;13745;51.470;9.894;2023-06-19T03:48:03;98841.88;;;20.36;70.95
25947;BME280;13745;51.470;9.894;2023-06-19T03:50:48;98837.63;;;20.33;70.71
25947;BME280;13745;51.470;9.894;2023-06-19T03:53:35;98836.78;;;20.33;70.54
25947;BME280;13745;51.470;9.894;2023-06-19T03:56:20;98844.78;;;20.31;69.92
25947;BME280;13745;51.470;9.894;2023-06-19T03:59:05;98846.38;;;20.34;69.73
25947;BME280;13745;51.470;9.894;2023-06-19T04:01:50;98854.38;;;20.32;69.66
25947;BME280;13745;51.470;9.894;2023-06-19T04:04:35;98843.84;;;20.32;69.29
25947;BME280;13745;51.470;9.894;2023-06-19T04:07:22;98841.97;;;20.34;69.48
25947;BME280;13745;51.470;9.894;2023-06-19T04:10:09;98841.78;;;20.37;69.85
25947;BME280;13745;51.470;9.894;2023-06-19T04:12:56;98844.22;;;20.40;70.13
25947;BME280;13745;51.470;9.894;2023-06-19T04:15:41;98850.31;;;20.41;70.67
25947;BME280;13745;51.470;9.894;2023-06-19T04:18:27;98851.28;;;20.40;70.84
25947;BME280;13745;51.470;9.894;2023-06-19T04:21:14;98852.13;;;20.40;70.61
25947;BME280;13745;51.470;9.894;2023-06-19T04:23:59;98846.94;;;20.39;70.79
25947;BME280;13745;51.470;9.894;2023-06-19T04:26:45;98842.53;;;20.39;71.35
25947;BME280;13745;51.470;9.894;2023-06-19T04:29:31;98847.91;;;20.38;71.03
25947;BME280;13745;51.470;9.894;2023-06-19T04:32:16;98843.56;;;20.37;71.11
25947;BME280;13745;51.470;9.894;2023-06-19T04:35:01;98844.53;;;20.36;70.97
25947;BME280;13745;51.470;9.894;2023-06-19T04:37:46;98849.69;;;20.37;71.30
25947;BME280;13745;51.470;9.894;2023-06-19T04:40:32;98848.84;;;20.37;71.72
25947;BME280;13745;51.470;9.894;2023-06-19T04:43:19;98848.75;;;20.38;71.70
25947;BME280;13745;51.470;9.894;2023-06-19T04:46:04;98853.91;;;20.40;72.09
25947;BME280;13745;51.470;9.894;2023-06-19T04:48:49;98852.13;;;20.40;72.11
25947;BME280;13745;51.470;9.894;2023-06-19T04:51:35;98857.22;;;20.43;71.94
25947;BME280;13745;51.470;9.894;2023-06-19T04:54:20;98852.63;;;20.47;71.79
25947;BME280;13745;51.470;9.894;2023-06-19T04:57:06;98851.41;;;20.53;71.83
25947;BME280;13745;51.470;9.894;2023-06-19T04:59:52;98856.38;;;20.57;72.20
25947;BME280;13745;51.470;9.894;2023-06-19T05:02:37;98863.03;;;20.63;72.02
25947;BME280;13745;51.470;9.894;2023-06-19T05:05:23;98856.72;;;20.65;72.16
25947;BME280;13745;51.470;9.894;2023-06-19T05:08:08;98855.59;;;20.69;72.27
25947;BME280;13745;51.470;9.894;2023-06-19T05:10:53;98861.41;;;20.74;72.45
25947;BME280;13745;51.470;9.894;2023-06-19T05:13:38;98860.09;;;20.82;72.26
25947;BME280;13745;51.470;9.894;2023-06-19T05:16:25;98863.19;;;20.88;72.08
25947;BME280;13745;51.470;9.894;2023-06-19T05:19:10;98860.78;;;20.98;72.35
25947;BME280;13745;51.470;9.894;2023-06-19T05:21:54;98856.72;;;21.07;71.70
25947;BME280;13745;51.470;9.894;2023-06-19T05:24:39;98863.28;;;21.14;71.72
25947;BME280;13745;51.470;9.894;2023-06-19T05:27:24;98863.06;;;21.17;71.36
25947;BME280;13745;51.470;9.894;2023-06-19T05:30:10;98868.16;;;21.20;70.57
25947;BME280;13745;51.470;9.894;2023-06-19T05:32:57;98876.09;;;21.20;70.09
25947;BME280;13745;51.470;9.894;2023-06-19T05:35:42;98883.22;;;21.18;70.16
25947;BME280;13745;51.470;9.894;2023-06-19T05:38:34;98887.66;;;21.17;70.58
25947;BME280;13745;51.470;9.894;2023-06-19T05:41:19;98892.19;;;21.15;71.13
25947;BME280;13745;51.470;9.894;2023-06-19T05:44:04;98893.97;;;21.15;71.56
25947;BME280;13745;51.470;9.894;2023-06-19T05:46:49;98901.03;;;21.14;71.45
25947;BME280;13745;51.470;9.894;2023-06-19T05:49:36;98904.25;;;21.19;71.67
25947;BME280;13745;51.470;9.894;2023-06-19T05:52:21;98911.69;;;21.27;71.24
25947;BME280;13745;51.470;9.894;2023-06-19T05:55:07;98909.56;;;21.32;71.09
25947;BME280;13745;51.470;9.894;2023-06-19T05:57:52;98918.91;;;21.38;71.04
25947;BME280;13745;51.470;9.894;2023-06-19T06:00:37;98921.44;;;21.39;71.40
25947;BME280;13745;51.470;9.894;2023-06-19T06:03:22;98936.19;;;21.42;71.28
25947;BME280;13745;51.470;9.894;2023-06-19T06:06:08;98934.22;;;21.45;71.26
25947;BME280;13745;51.470;9.894;2023-06-19T06:08:53;98928.09;;;21.45;71.31
25947;BME280;13745;51.470;9.894;2023-06-19T06:11:39;98932.31;;;21.47;71.35
25947;BME280;13745;51.470;9.894;2023-06-19T06:14:24;98933.78;;;21.51;70.94
25947;BME280;13745;51.470;9.894;2023-06-19T06:17:09;98927.50;;;21.54;70.96
25947;BME280;13745;51.470;9.894;2023-06-19T06:19:54;98933.63;;;21.54;70.84
25947;BME280;13745;51.470;9.894;2023-06-19T06:22:41;98935.94;;;21.59;70.80
25947;BME280;13745;51.470;9.894;2023-06-19T06:25:27;98933.00;;;21.64;71.57
25947;BME280;13745;51.470;9.894;2023-06-19T06:28:12;98937.03;;;21.69;71.59
25947;BME280;13745;51.470;9.894;2023-06-19T06:30:58;98940.19;;;21.74;71.50
25947;BME280;13745;51.470;9.894;2023-06-19T06:33:43;98939.06;;;21.78;71.03
25947;BME280;13745;51.470;9.894;2023-06-19T06:36:28;98937.41;;;21.90;70.36
25947;BME280;13745;51.470;9.894;2023-06-19T06:39:14;98940.81;;;22.05;69.85
25947;BME280;13745;51.470;9.894;2023-06-19T06:41:59;98947.00;;;22.18;69.74
25947;BME280;13745;51.470;9.894;2023-06-19T06:44:45;98942.88;;;22.27;69.67
25947;BME280;13745;51.470;9.894;2023-06-19T06:47:30;98944.22;;;22.32;69.81
25947;BME280;13745;51.470;9.894;2023-06-19T06:50:15;98942.13;;;22.37;69.17
25947;BME280;13745;51.470;9.894;2023-06-19T06:53:01;98945.94;;;22.46;68.65
25947;BME280;13745;51.470;9.894;2023-06-19T06:55:48;98946.25;;;22.54;68.34
25947;BME280;13745;51.470;9.894;2023-06-19T06:58:32;98953.22;;;22.68;68.52
25947;BME280;13745;51.470;9.894;2023-06-19T07:01:18;98949.59;;;22.82;67.78
25947;BME280;13745;51.470;9.894;2023-06-19T07:04:03;98948.53;;;22.97;67.67
25947;BME280;13745;51.470;9.894;2023-06-19T07:06:48;98949.03;;;23.15;67.58
25947;BME280;13745;51.470;9.894;2023-06-19T07:09:33;98943.59;;;23.29;67.66
25947;BME280;13745;51.470;9.894;2023-06-19T07:12:20;98950.00;;;23.38;68.47
25947;BME280;13745;51.470;9.894;2023-06-19T07:15:06;98950.47;;;23.55;68.76
25947;BME280;13745;51.470;9.894;2023-06-19T07:17:51;98949.13;;;23.74;68.08
25947;BME280;13745;51.470;9.894;2023-06-19T07:20:36;98942.28;;;23.82;67.73
25947;BME280;13745;51.470;9.894;2023-06-19T07:23:21;98945.22;;;23.91;66.97
25947;BME280;13745;51.470;9.894;2023-06-19T07:26:06;98943.47;;;24.02;66.90
25947;BME280;13745;51.470;9.894;2023-06-19T07:28:53;98943.84;;;24.09;66.92
25947;BME280;13745;51.470;9.894;2023-06-19T07:31:38;98941.56;;;24.16;67.36
25947;BME280;13745;51.470;9.894;2023-06-19T07:34:23;98938.22;;;24.25;67.57
25947;BME280;13745;51.470;9.894;2023-06-19T07:37:08;98939.34;;;24.33;67.95
25947;BME280;13745;51.470;9.894;2023-06-19T07:39:53;98941.63;;;24.38;68.01
25947;BME280;13745;51.470;9.894;2023-06-19T07:42:38;98949.84;;;24.46;68.11
25947;BME280;13745;51.470;9.894;2023-06-19T07:45:24;98947.22;;;24.69;67.05
25947;BME280;13745;51.470;9.894;2023-06-19T07:48:09;98945.16;;;24.94;66.44
25947;BME280;13745;51.470;9.894;2023-06-19T07:50:54;98948.53;;;25.19;64.79
25947;BME280;13745;51.470;9.894;2023-06-19T07:53:39;98953.66;;;25.43;63.89
25947;BME280;13745;51.470;9.894;2023-06-19T07:56:24;98956.47;;;25.62;63.18
25947;BME280;13745;51.470;9.894;2023-06-19T07:59:09;98959.59;;;25.79;62.59
25947;BME280;13745;51.470;9.894;2023-06-19T08:01:56;98955.94;;;25.91;61.58
25947;BME280;13745;51.470;9.894;2023-06-19T08:04:41;98951.13;;;26.05;61.07
25947;BME280;13745;51.470;9.894;2023-06-19T08:07:26;98947.63;;;26.26;60.70
25947;BME280;13745;51.470;9.894;2023-06-19T08:10:11;98951.03;;;26.49;60.43
25947;BME280;13745;51.470;9.894;2023-06-19T08:12:56;98942.72;;;26.73;59.87
25947;BME280;13745;51.470;9.894;2023-06-19T08:15:41;98939.03;;;26.95;59.87
25947;BME280;13745;51.470;9.894;2023-06-19T08:18:29;98935.06;;;27.20;59.74
25947;BME280;13745;51.470;9.894;2023-06-19T08:21:14;98939.88;;;27.35;59.26
25947;BME280;13745;51.470;9.894;2023-06-19T08:24:00;98938.06;;;27.55;58.54
25947;BME280;13745;51.470;9.894;2023-06-19T08:26:45;98942.75;;;27.73;58.02
25947;BME280;13745;51.470;9.894;2023-06-19T08:29:34;98945.53;;;27.90;57.81
25947;BME280;13745;51.470;9.894;2023-06-19T08:32:19;98947.34;;;27.99;58.22
25947;BME280;13745;51.470;9.894;2023-06-19T08:35:06;98935.66;;;28.20;57.40
25947;BME280;13745;51.470;9.894;2023-06-19T08:37:51;98951.94;;;28.36;57.36
25947;BME280;13745;51.470;9.894;2023-06-19T08:40:37;98949.38;;;28.54;57.00
25947;BME280;13745;51.470;9.894;2023-06-19T08:43:22;98941.91;;;28.67;56.27
25947;BME280;13745;51.470;9.894;2023-06-19T08:46:10;98944.63;;;28.85;56.70
25947;BME280;13745;51.470;9.894;2023-06-19T08:48:55;98944.81;;;29.11;56.90
25947;BME280;13745;51.470;9.894;2023-06-19T08:51:42;98944.03;;;29.46;56.16
25947;BME280;13745;51.470;9.894;2023-06-19T08:54:27;98950.50;;;29.71;54.91
25947;BME280;13745;51.470;9.894;2023-06-19T08:57:13;98943.66;;;29.94;54.17
25947;BME280;13745;51.470;9.894;2023-06-19T08:59:58;98944.66;;;30.11;54.01
25947;BME280;13745;51.470;9.894;2023-06-19T09:02:45;98944.72;;;30.19;52.90
25947;BME280;13745;51.470;9.894;2023-06-19T09:05:30;98952.06;;;30.00;52.73
25947;BME280;13745;51.470;9.894;2023-06-19T09:08:17;98957.03;;;29.77;52.64
25947;BME280;13745;51.470;9.894;2023-06-19T09:11:04;98962.31;;;29.69;52.89
25947;BME280;13745;51.470;9.894;2023-06-19T09:13:56;98957.28;;;29.83;52.04
25947;BME280;13745;51.470;9.894;2023-06-19T09:16:41;98960.34;;;29.88;52.17
25947;BME280;13745;51.470;9.894;2023-06-19T09:19:27;98963.22;;;29.95;51.82
25947;BME280;13745;51.470;9.894;2023-06-19T09:22:12;98950.63;;;30.05;52.22
25947;BME280;13745;51.470;9.894;2023-06-19T09:25:01;98945.88;;;30.17;51.62
25947;BME280;13745;51.470;9.894;2023-06-19T09:27:46;98952.47;;;30.23;50.78
25947;BME280;13745;51.470;9.894;2023-06-19T09:30:31;98958.22;;;30.36;50.59
25947;BME280;13745;51.470;9.894;2023-06-19T09:33:16;98964.31;;;30.46;50.67
25947;BME280;13745;51.470;9.894;2023-06-19T09:36:03;98962.03;;;30.59;51.04
25947;BME280;13745;51.470;9.894;2023-06-19T09:38:48;98956.41;;;30.62;50.84
25947;BME280;13745;51.470;9.894;2023-06-19T09:41:36;98954.25;;;30.66;50.91
25947;BME280;13745;51.470;9.894;2023-06-19T09:44:22;98956.66;;;30.77;50.24
25947;BME280;13745;51.470;9.894;2023-06-19T09:47:14;98962.22;;;30.84;49.78
25947;BME280;13745;51.470;9.894;2023-06-19T09:50:03;98963.41;;;30.89;50.28
25947;BME280;13745;51.470;9.894;2023-06-19T09:52:49;98960.28;;;31.02;50.34
25947;BME280;13745;51.470;9.894;2023-06-19T09:55:36;98955.53;;;31.22;49.27
25947;BME280;13745;51.470;9.894;2023-06-19T09:58:24;98949.53;;;31.28;49.78
25947;BME280;13745;51.470;9.894;2023-06-19T10:01:09;98958.75;;;31.34;49.22
25947;BME280;13745;51.470;9.894;2023-06-19T10:04:03;98960.22;;;31.20;49.44
25947;BME280;13745;51.470;9.894;2023-06-19T10:06:49;98963.41;;;31.23;49.41
25947;BME280;13745;51.470;9.894;2023-06-19T10:09:34;98964.97;;;31.42;49.39
25947;BME280;13745;51.470;9.894;2023-06-19T10:12:19;98968.03;;;31.55;48.54
25947;BME280;13745;51.470;9.894;2023-06-19T10:15:11;98961.69;;;31.73;48.28
25947;BME280;13745;51.470;9.894;2023-06-19T10:18:00;98958.66;;;31.76;49.15
25947;BME280;13745;51.470;9.894;2023-06-19T10:20:46;98975.06;;;31.56;49.20
25947;BME280;13745;51.470;9.894;2023-06-19T10:23:36;98964.13;;;31.34;49.77
25947;BME280;13745;51.470;9.894;2023-06-19T10:26:29;98963.34;;;31.15;49.73
25947;BME280;13745;51.470;9.894;2023-06-19T10:29:15;98958.66;;;31.17;49.40
25947;BME280;13745;51.470;9.894;2023-06-19T10:32:02;98963.44;;;31.31;49.22
25947;BME280;13745;51.470;9.894;2023-06-19T10:34:47;98958.63;;;31.51;49.38
25947;BME280;13745;51.470;9.894;2023-06-19T10:37:33;98950.78;;;31.74;48.80
25947;BME280;13745;51.470;9.894;2023-06-19T10:40:18;98943.97;;;31.88;48.38
25947;BME280;13745;51.470;9.894;2023-06-19T10:43:03;98948.16;;;31.99;48.49
25947;BME280;13745;51.470;9.894;2023-06-19T10:45:48;98953.34;;;32.17;48.95
25947;BME280;13745;51.470;9.894;2023-06-19T10:48:35;98944.44;;;32.24;48.76
25947;BME280;13745;51.470;9.894;2023-06-19T10:51:20;98943.13;;;32.36;48.49
25947;BME280;13745;51.470;9.894;2023-06-19T10:54:06;98939.09;;;32.40;47.92
25947;BME280;13745;51.470;9.894;2023-06-19T10:56:51;98940.41;;;32.53;48.36
25947;BME280;13745;51.470;9.894;2023-06-19T10:59:36;98936.31;;;32.73;47.97
25947;BME280;13745;51.470;9.894;2023-06-19T11:02:23;98935.66;;;32.71;48.62
25947;BME280;13745;51.470;9.894;2023-06-19T11:05:11;98942.41;;;32.51;48.98
25947;BME280;13745;51.470;9.894;2023-06-19T11:07:58;98936.91;;;32.20;48.68
25947;BME280;13745;51.470;9.894;2023-06-19T11:10:44;98932.72;;;31.84;48.87
25947;BME280;13745;51.470;9.894;2023-06-19T11:13:28;98941.72;;;31.59;49.29
25947;BME280;13745;51.470;9.894;2023-06-19T11:16:14;98939.16;;;31.33;49.79
25947;BME280;13745;51.470;9.894;2023-06-19T11:19:00;98934.34;;;31.02;50.34
25947;BME280;13745;51.470;9.894;2023-06-19T11:21:48;98944.97;;;30.86;51.48
25947;BME280;13745;51.470;9.894;2023-06-19T11:24:33;98941.59;;;30.76;51.39
25947;BME280;13745;51.470;9.894;2023-06-19T11:27:21;98934.34;;;30.68;51.26
25947;BME280;13745;51.470;9.894;2023-06-19T11:30:11;98940.88;;;30.66;50.92
25947;BME280;13745;51.470;9.894;2023-06-19T11:32:56;98943.09;;;30.70;51.41
25947;BME280;13745;51.470;9.894;2023-06-19T11:35:47;98941.19;;;30.97;50.68
25947;BME280;13745;51.470;9.894;2023-06-19T11:38:36;98938.13;;;31.26;49.87
25947;BME280;13745;51.470;9.894;2023-06-19T11:41:26;98936.47;;;31.33;49.54
25947;BME280;13745;51.470;9.894;2023-06-19T11:44:12;98938.53;;;31.55;49.41
25947;BME280;13745;51.470;9.894;2023-06-19T11:46:57;98941.78;;;31.83;49.17
25947;BME280;13745;51.470;9.894;2023-06-19T11:49:43;98939.94;;;31.84;49.08
25947;BME280;13745;51.470;9.894;2023-06-19T11:52:28;98939.63;;;31.79;49.37
25947;BME280;13745;51.470;9.894;2023-06-19T11:55:16;98943.97;;;31.80;48.54
25947;BME280;13745;51.470;9.894;2023-06-19T11:58:01;98951.31;;;31.94;48.95
25947;BME280;13745;51.470;9.894;2023-06-19T12:00:46;98952.34;;;31.93;47.79
25947;BME280;13745;51.470;9.894;2023-06-19T12:03:31;98940.28;;;31.89;47.37
25947;BME280;13745;51.470;9.894;2023-06-19T12:06:16;98945.66;;;31.89;47.78
25947;BME280;13745;51.470;9.894;2023-06-19T12:09:03;98936.94;;;31.95;46.97
25947;BME280;13745;51.470;9.894;2023-06-19T12:11:50;98929.19;;;32.00;47.04
25947;BME280;13745;51.470;9.894;2023-06-19T12:14:35;98940.59;;;31.94;47.30
25947;BME280;13745;51.470;9.894;2023-06-19T12:17:20;98932.91;;;31.91;47.98
25947;BME280;13745;51.470;9.894;2023-06-19T12:20:06;98933.56;;;31.85;47.55
25947;BME280;13745;51.470;9.894;2023-06-19T12:22:51;98941.13;;;31.81;47.69
25947;BME280;13745;51.470;9.894;2023-06-19T12:25:36;98948.63;;;31.70;47.09
25947;BME280;13745;51.470;9.894;2023-06-19T12:28:23;98931.34;;;31.56;47.09
25947;BME280;13745;51.470;9.894;2023-06-19T12:31:09;98941.53;;;31.44;47.11
25947;BME280;13745;51.470;9.894;2023-06-19T12:33:54;98945.06;;;31.45;46.59
25947;BME280;13745;51.470;9.894;2023-06-19T12:36:39;98934.00;;;31.48;46.35
25947;BME280;13745;51.470;9.894;2023-06-19T12:39:24;98935.69;;;31.57;46.40
25947;BME280;13745;51.470;9.894;2023-06-19T12:42:10;98934.53;;;31.68;46.85
25947;BME280;13745;51.470;9.894;2023-06-19T12:44:58;98923.34;;;31.80;47.02
25947;BME280;13745;51.470;9.894;2023-06-19T12:47:43;98946.81;;;31.78;46.13
25947;BME280;13745;51.470;9.894;2023-06-19T12:50:28;98944.94;;;31.63;47.08
25947;BME280;13745;51.470;9.894;2023-06-19T12:53:13;98949.75;;;31.51;46.72
25947;BME280;13745;51.470;9.894;2023-06-19T12:55:59;98941.53;;;31.52;47.57
25947;BME280;13745;51.470;9.894;2023-06-19T12:58:44;98935.22;;;31.62;47.16
25947;BME280;13745;51.470;9.894;2023-06-19T13:01:30;98938.03;;;31.60;46.58
25947;BME280;13745;51.470;9.894;2023-06-19T13:04:16;98941.84;;;31.41;46.84
25947;BME280;13745;51.470;9.894;2023-06-19T13:07:01;98949.56;;;31.44;46.63
25947;BME280;13745;51.470;9.894;2023-06-19T13:09:46;98951.38;;;31.36;46.69
25947;BME280;13745;51.470;9.894;2023-06-19T13:12:32;98949.03;;;31.24;47.32
25947;BME280;13745;51.470;9.894;2023-06-19T13:15:17;98952.13;;;31.12;48.37
25947;BME280;13745;51.470;9.894;2023-06-19T13:18:04;98949.03;;;31.24;48.89
25947;BME280;13745;51.470;9.894;2023-06-19T13:20:49;98948.25;;;31.48;49.08
25947;BME280;13745;51.470;9.894;2023-06-19T13:23:34;98949.28;;;31.64;49.36
25947;BME280;13745;51.470;9.894;2023-06-19T13:26:19;98949.50;;;31.86;49.98
25947;BME280;13745;51.470;9.894;2023-06-19T13:29:04;98953.50;;;31.99;49.90
25947;BME280;13745;51.470;9.894;2023-06-19T13:31:49;98956.84;;;32.09;49.53
25947;BME280;13745;51.470;9.894;2023-06-19T13:34:36;98952.69;;;32.14;49.78
25947;BME280;13745;51.470;9.894;2023-06-19T13:37:21;98960.72;;;32.23;50.04
25947;BME280;13745;51.470;9.894;2023-06-19T13:40:07;98955.19;;;32.16;51.03
25947;BME280;13745;51.470;9.894;2023-06-19T13:42:52;98963.41;;;32.06;50.96
25947;BME280;13745;51.470;9.894;2023-06-19T13:45:38;98961.22;;;32.18;50.62
25947;BME280;13745;51.470;9.894;2023-06-19T13:48:23;98961.91;;;32.20;50.69
25947;BME280;13745;51.470;9.894;2023-06-19T13:51:09;98952.34;;;32.01;50.70
25947;BME280;13745;51.470;9.894;2023-06-19T13:53:55;98957.88;;;31.83;50.52
25947;BME280;13745;51.470;9.894;2023-06-19T13:56:40;98958.81;;;31.66;51.27
25947;BME280;13745;51.470;9.894;2023-06-19T13:59:26;98963.97;;;31.51;51.24
25947;BME280;13745;51.470;9.894;2023-06-19T14:02:11;98962.13;;;31.52;51.34
25947;BME280;13745;51.470;9.894;2023-06-19T14:04:56;98961.97;;;31.45;51.84
25947;BME280;13745;51.470;9.894;2023-06-19T14:07:43;98952.38;;;31.35;52.23
25947;BME280;13745;51.470;9.894;2023-06-19T14:10:28;98955.81;;;31.19;52.94
25947;BME280;13745;51.470;9.894;2023-06-19T14:13:13;98974.03;;;31.07;52.31
25947;BME280;13745;51.470;9.894;2023-06-19T14:15:58;98965.09;;;30.90;53.20
25947;BME280;13745;51.470;9.894;2023-06-19T14:18:43;98967.84;;;30.72;52.93
25947;BME280;13745;51.470;9.894;2023-06-19T14:21:28;98973.28;;;30.63;53.15
25947;BME280;13745;51.470;9.894;2023-06-19T14:24:14;98968.72;;;30.55;53.69
25947;BME280;13745;51.470;9.894;2023-06-19T14:27:00;98967.69;;;30.48;54.04
25947;BME280;13745;51.470;9.894;2023-06-19T14:29:45;98972.13;;;30.39;53.89
25947;BME280;13745;51.470;9.894;2023-06-19T14:32:30;98968.19;;;30.26;55.15
25947;BME280;13745;51.470;9.894;2023-06-19T14:35:14;98975.97;;;30.19;55.34
25947;BME280;13745;51.470;9.894;2023-06-19T14:38:00;98967.75;;;30.12;55.71